Time;durP1;ratioP1;P1;durP2;ratioP2;P2;SDS_P1;SDS_P2;PMS_P1;PMS_P2;Temp;Humidity;BMP_temperature;BMP_pressure;BME280_temperature;BME280_humidity;BME280_pressure;Samples;Min_cycle;Max_cycle;Signal;HPM_P1;HPM_P2
2022/05/01 00:02:18;;;;;;;;;9.25;7.00;;;;;13.50;41.85;101804.97;5036637;28;45381;-53
2022/05/01 00:04:44;;;;;;;;;12.00;11.00;;;;;13.44;41.60;101798.31;5036318;28;45904;-53
2022/05/01 00:07:12;;;;;;;;;10.75;10.00;;;;;13.44;42.03;101791.97;5035008;28;45473;-52
2022/05/01 00:09:40;;;;;;;;;10.60;9.00;;;;;13.40;41.41;101800.63;5069034;28;45374;-55
2022/05/01 00:12:07;;;;;;;;;14.60;12.80;;;;;13.42;42.01;101792.16;5036789;28;45251;-52
2022/05/01 00:14:33;;;;;;;;;9.40;9.40;;;;;13.35;42.06;101794.03;5035949;28;46433;-54
2022/05/01 00:17:00;;;;;;;;;10.40;10.40;;;;;13.32;42.25;101795.28;5036151;28;45342;-56
2022/05/01 00:19:25;;;;;;;;;13.60;10.40;;;;;12.80;42.63;101735.00;5036072;28;45828;-55
2022/05/01 00:21:51;;;;;;;;;12.75;11.50;;;;;13.00;43.55;101793.00;5035265;28;45425;-55
2022/05/01 00:24:16;;;;;;;;;11.50;9.50;;;;;13.07;42.91;101794.97;5027789;28;46433;-52
2022/05/01 00:26:42;;;;;;;;;10.25;9.75;;;;;13.03;42.99;101791.75;5035786;28;45416;-51
2022/05/01 00:29:07;;;;;;;;;14.00;11.50;;;;;12.97;43.30;101787.88;5034833;28;45444;-52
2022/05/01 00:31:33;;;;;;;;;15.50;12.00;;;;;12.91;43.29;101783.19;5034245;28;45704;-58
2022/05/01 00:36:42;;;;;;;;;12.40;11.00;;;;;13.07;43.20;101789.44;5030369;28;45371;-52
2022/05/01 00:39:08;;;;;;;;;12.25;10.75;;;;;13.08;43.08;101783.72;5035681;28;45364;-59
2022/05/01 00:41:35;;;;;;;;;10.00;10.00;;;;;12.71;43.15;101733.50;5033679;28;45355;-55
2022/05/01 00:44:08;;;;;;;;;13.00;11.40;;;;;13.06;42.97;101774.81;5032918;28;46273;-57
2022/05/01 00:46:35;;;;;;;;;12.80;10.60;;;;;13.13;43.28;101781.19;5033963;28;45430;-55
2022/05/01 00:49:02;;;;;;;;;17.60;13.00;;;;;12.97;43.27;101765.84;5034397;28;45252;-55
2022/05/01 00:51:35;;;;;;;;;15.20;11.40;;;;;13.08;43.27;101772.69;5034772;28;45408;-53
2022/05/01 00:54:00;;;;;;;;;11.20;11.20;;;;;12.87;43.47;101744.16;5034096;28;45812;-51
2022/05/01 00:56:26;;;;;;;;;12.75;12.00;;;;;13.06;43.79;101769.28;5034121;28;45200;-51
2022/05/01 00:58:52;;;;;;;;;11.40;11.00;;;;;12.86;43.60;101744.38;5034971;28;45364;-54
2022/05/01 01:01:18;;;;;;;;;13.75;12.25;;;;;12.98;43.66;101774.97;5034635;28;45421;-52
2022/05/01 01:03:44;;;;;;;;;11.80;9.60;;;;;12.91;43.92;101776.84;5034965;28;46133;-51
2022/05/01 01:06:10;;;;;;;;;11.20;10.00;;;;;12.46;43.97;101698.16;5035039;28;45417;-55
2022/05/01 01:08:36;;;;;;;;;15.00;15.00;;;;;12.90;44.47;101773.22;5035372;28;45326;-56
2022/05/01 01:11:01;;;;;;;;;15.25;14.00;;;;;12.84;44.33;101772.13;5035282;28;45315;-54
2022/05/01 01:13:28;;;;;;;;;15.25;12.25;;;;;12.78;44.44;101769.31;5035152;28;45389;-53
2022/05/01 01:15:54;;;;;;;;;17.20;11.00;;;;;12.76;44.54;101772.31;5034927;28;45304;-50
2022/05/01 01:18:20;;;;;;;;;10.20;10.00;;;;;12.70;44.44;101757.41;5035108;28;45313;-53
2022/05/01 01:20:46;;;;;;;;;16.00;14.00;;;;;12.81;44.34;101771.69;5067449;28;45600;-57
2022/05/01 01:23:11;;;;;;;;;14.00;14.00;;;;;12.50;44.41;101721.50;5034593;28;46154;-57
2022/05/01 01:25:37;;;;;;;;;13.00;11.75;;;;;12.76;44.66;101771.44;5033668;28;45248;-58
2022/05/01 01:28:04;;;;;;;;;10.25;9.50;;;;;12.73;44.43;101772.69;5035223;28;45324;-50
2022/05/01 01:33:14;;;;;;;;;12.60;12.60;;;;;12.60;45.05;101766.03;5034507;28;45420;-53
2022/05/01 01:35:39;;;;;;;;;14.50;13.50;;;;;12.66;44.67;101769.03;5034848;28;45466;-54
2022/05/01 01:38:05;;;;;;;;;14.25;13.50;;;;;12.25;45.38;101730.19;5049982;28;45350;-53
2022/05/01 01:40:43;;;;;;;;;18.00;14.00;;;;;12.22;46.41;101771.03;5035295;28;45642;-54
2022/05/01 01:43:08;;;;;;;;;19.20;14.20;;;;;12.08;45.98;101757.13;5034320;28;45796;-57
2022/05/01 01:45:34;;;;;;;;;17.25;14.75;;;;;12.04;46.65;101739.31;5067053;28;45412;-56
2022/05/01 01:48:13;;;;;;;;;17.00;12.75;;;;;12.23;46.36;101773.59;5038118;28;45383;-53
2022/05/01 01:50:39;;;;;;;;;16.40;16.40;;;;;12.27;46.01;101747.34;5038707;28;45398;-55
2022/05/01 01:53:05;;;;;;;;;15.40;14.80;;;;;12.18;46.05;101726.53;5037879;28;46562;-53
2022/05/01 01:55:33;;;;;;;;;16.75;16.00;;;;;12.40;46.20;101759.53;5038435;28;45374;-54
2022/05/01 01:57:59;;;;;;;;;17.20;15.80;;;;;12.26;46.28;101775.91;5037224;28;45524;-54
2022/05/01 02:00:24;;;;;;;;;18.25;16.50;;;;;12.22;46.36;101763.59;5037981;28;45275;-51
2022/05/01 02:02:57;;;;;;;;;16.50;16.50;;;;;12.16;46.85;101758.88;5040974;28;45367;-52
2022/05/01 02:05:23;;;;;;;;;20.40;17.20;;;;;12.14;46.93;101764.59;5054860;28;45507;-54
2022/05/01 02:07:48;;;;;;;;;20.50;18.25;;;;;11.58;47.21;101705.59;5053773;28;45921;-54
2022/05/01 02:10:13;;;;;;;;;24.00;19.50;;;;;11.87;47.71;101760.69;5058136;28;45491;-51
2022/05/01 02:12:40;;;;;;;;;19.25;19.25;;;;;11.84;47.76;101764.69;5058138;28;46292;-52
2022/05/01 02:15:06;;;;;;;;;17.20;15.00;;;;;11.84;47.65;101761.09;5057712;28;45378;-53
2022/05/01 02:17:31;;;;;;;;;16.80;14.80;;;;;11.91;47.92;101756.53;5052354;28;45441;-52
2022/05/01 02:19:57;;;;;;;;;21.75;16.75;;;;;11.85;47.03;101740.78;5038382;28;45582;-55
2022/05/01 02:22:22;;;;;;;;;19.75;18.00;;;;;11.83;47.92;101765.75;5037577;28;46853;-55
2022/05/01 02:24:49;;;;;;;;;16.25;16.25;;;;;11.91;47.41;101757.34;5037902;28;45378;-52
2022/05/01 02:27:14;;;;;;;;;18.80;18.20;;;;;12.00;47.39;101755.31;5036393;28;45362;-48
2022/05/01 02:29:42;;;;;;;;;21.50;16.75;;;;;11.95;48.06;101751.47;5037989;28;45503;-55
2022/05/01 02:32:07;;;;;;;;;17.80;17.60;;;;;11.90;47.98;101757.56;5069551;28;46104;-51
2022/05/01 02:34:33;;;;;;;;;17.00;14.50;;;;;11.84;47.98;101747.34;5037342;28;45552;-58
2022/05/01 02:36:59;;;;;;;;;16.50;15.25;;;;;11.71;48.32;101746.16;5038117;28;45398;-58
2022/05/01 02:39:25;;;;;;;;;17.00;15.00;;;;;11.55;48.52;101722.50;5037597;28;45524;-57
2022/05/01 02:41:50;;;;;;;;;18.00;16.50;;;;;11.63;48.41;101721.53;5052996;28;47004;-49
2022/05/01 02:44:16;;;;;;;;;21.75;17.25;;;;;11.75;48.08;101743.88;5069863;28;45394;-50
2022/05/01 02:46:41;;;;;;;;;17.00;16.00;;;;;11.75;48.56;101741.13;5037583;28;45467;-51
2022/05/01 02:49:08;;;;;;;;;18.75;15.75;;;;;11.71;48.25;101732.41;5037762;28;45362;-56
2022/05/01 02:51:33;;;;;;;;;17.40;16.80;;;;;11.48;49.16;101716.09;5037382;28;46702;-54
2022/05/01 02:53:59;;;;;;;;;16.00;16.00;;;;;11.63;48.54;101732.53;5037591;28;45356;-54
2022/05/01 02:56:26;;;;;;;;;22.75;18.00;;;;;11.60;48.33;101730.16;5069759;28;45411;-50
2022/05/01 02:58:51;;;;;;;;;20.60;18.00;;;;;11.49;49.01;101734.28;5037068;28;45642;-55
2022/05/01 03:01:17;;;;;;;;;20.75;19.00;;;;;11.11;49.74;101691.34;5037247;28;45534;-50
2022/05/01 03:03:42;;;;;;;;;20.50;18.25;;;;;11.27;48.98;101731.50;5036249;28;45417;-54
2022/05/01 03:06:08;;;;;;;;;17.25;15.50;;;;;11.26;49.99;101727.00;5069705;28;45402;-53
2022/05/01 03:08:34;;;;;;;;;22.00;19.60;;;;;11.30;49.40;101728.34;5035893;28;45636;-54
2022/05/01 03:11:00;;;;;;;;;21.00;19.75;;;;;11.34;48.93;101706.81;5069230;28;45616;-53
2022/05/01 03:13:26;;;;;;;;;19.20;19.20;;;;;11.35;48.96;101725.00;5069214;28;45318;-54
2022/05/01 03:15:52;;;;;;;;;19.00;18.25;;;;;11.37;49.36;101720.19;5036565;28;45399;-49
2022/05/01 03:23:45;;;;;;;;;18.40;16.00;;;;;11.39;48.69;101712.59;5036264;28;45334;-53
2022/05/01 03:26:11;;;;;;;;;23.80;20.00;;;;;11.22;49.44;101677.09;5036618;28;45322;-52
2022/05/01 03:28:36;;;;;;;;;16.50;15.25;;;;;11.29;49.03;101665.31;5037135;28;45617;-54
2022/05/01 03:31:03;;;;;;;;;19.25;16.50;;;;;11.42;48.27;101681.97;5036257;28;46019;-56
2022/05/01 03:33:31;;;;;;;;;9.60;8.00;;;;;11.48;48.08;101675.69;5036794;28;45346;-51
2022/05/01 03:35:57;;;;;;;;;20.20;18.40;;;;;11.68;48.30;101713.53;5036169;28;45390;-54
2022/05/01 03:38:22;;;;;;;;;19.20;17.00;;;;;11.74;48.61;101704.50;5036699;28;45364;-53
2022/05/01 03:40:48;;;;;;;;;17.25;16.00;;;;;11.77;48.37;101701.38;5036200;28;46104;-52
2022/05/01 03:43:16;;;;;;;;;23.25;18.00;;;;;11.77;48.07;101701.38;5036512;28;45358;-51
2022/05/01 03:45:41;;;;;;;;;17.40;13.40;;;;;11.71;48.38;101699.41;5036413;28;45323;-57
2022/05/01 03:48:07;;;;;;;;;20.00;17.00;;;;;11.69;47.74;101701.47;5035081;28;45692;-50
2022/05/01 03:50:32;;;;;;;;;16.60;16.00;;;;;11.45;48.60;101673.34;5036189;28;45322;-55
2022/05/01 03:52:58;;;;;;;;;12.75;12.75;;;;;11.53;49.03;101708.94;5036356;28;45701;-52
2022/05/01 03:55:23;;;;;;;;;19.25;16.25;;;;;11.59;48.57;101700.97;5034869;28;45401;-48
2022/05/01 03:57:49;;;;;;;;;20.25;16.50;;;;;11.60;48.25;101706.28;5036657;28;45365;-53
2022/05/01 04:00:21;;;;;;;;;13.00;13.00;;;;;11.65;48.53;101705.69;5035759;28;46205;-57
2022/05/01 04:02:46;;;;;;;;;22.60;15.80;;;;;11.42;48.20;101667.38;5036205;28;45342;-55
2022/05/01 04:05:12;;;;;;;;;20.00;15.00;;;;;11.34;48.01;101654.59;5036118;28;45394;-49
2022/05/01 04:07:38;;;;;;;;;12.50;12.50;;;;;11.63;48.62;101696.78;5011502;28;45687;-51
2022/05/01 04:10:05;;;;;;;;;18.60;17.60;;;;;11.69;48.47;101701.47;5025226;28;46486;-49
2022/05/01 04:12:36;;;;;;;;;22.20;16.80;;;;;11.71;48.06;101696.66;5014109;28;45319;-48
2022/05/01 04:15:02;;;;;;;;;22.80;16.60;;;;;11.63;48.55;101699.53;5014978;28;45308;-52
2022/05/01 04:17:27;;;;;;;;;20.40;20.20;;;;;11.63;48.81;101699.53;5018207;28;45939;-54
2022/05/01 04:19:53;;;;;;;;;23.00;17.00;;;;;11.66;48.51;101689.00;5034870;28;45985;-51
2022/05/01 04:22:19;;;;;;;;;19.00;17.00;;;;;11.70;47.75;101697.72;5033750;28;45670;-48
2022/05/01 04:24:45;;;;;;;;;19.50;16.25;;;;;11.64;48.23;101691.06;5035722;28;45349;-49
2022/05/01 04:27:10;;;;;;;;;18.60;12.40;;;;;11.61;48.49;101696.97;5035884;28;46134;-56
2022/05/01 04:29:36;;;;;;;;;24.75;17.75;;;;;11.48;49.01;101691.34;5035912;28;45799;-56
2022/05/01 04:32:02;;;;;;;;;17.75;16.00;;;;;11.47;48.54;101695.97;5036254;28;45563;-55
2022/05/01 04:34:27;;;;;;;;;20.50;15.00;;;;;11.48;49.22;101705.09;5035879;28;45443;-49
2022/05/01 04:36:53;;;;;;;;;24.25;23.00;;;;;11.49;48.61;101701.28;5034556;28;45395;-53
2022/05/01 04:39:18;;;;;;;;;18.25;17.00;;;;;11.51;49.08;101691.81;5034348;28;45438;-51
2022/05/01 04:41:44;;;;;;;;;17.50;15.50;;;;;11.47;49.30;101698.72;5035570;28;45350;-52
2022/05/01 04:44:10;;;;;;;;;19.75;17.00;;;;;11.28;48.77;101696.59;5035875;28;45244;-53
2022/05/01 04:46:36;;;;;;;;;20.80;16.00;;;;;11.14;50.31;101695.59;5035884;28;45215;-49
2022/05/01 04:49:02;;;;;;;;;17.60;15.80;;;;;10.87;50.32;101668.63;5035403;28;45817;-54
2022/05/01 04:51:28;;;;;;;;;16.00;14.50;;;;;11.10;50.17;101703.38;5035460;28;45340;-52
2022/05/01 04:53:53;;;;;;;;;21.75;16.50;;;;;11.17;50.03;101701.56;5034563;28;45568;-51
2022/05/01 04:59:07;;;;;;;;;22.60;20.80;;;;;11.42;49.97;101703.94;5035291;28;45917;-49
2022/05/01 05:01:35;;;;;;;;;27.80;21.40;;;;;11.34;49.26;101704.06;5034861;28;45401;-51
2022/05/01 05:04:02;;;;;;;;;14.40;10.80;;;;;11.29;49.33;101703.78;5034124;28;45294;-53
2022/05/01 05:06:27;;;;;;;;;17.60;17.20;;;;;11.41;48.92;101707.75;5033845;28;45485;-54
2022/05/01 05:11:37;;;;;;;;;22.20;21.40;;;;;11.57;48.51;101708.56;5034845;28;45288;-49
2022/05/01 05:14:04;;;;;;;;;23.50;17.25;;;;;11.61;49.01;101718.13;5034005;28;45387;-51
2022/05/01 05:16:29;;;;;;;;;21.40;18.20;;;;;11.45;48.80;101695.31;5034958;28;45311;-51
2022/05/01 05:18:55;;;;;;;;;23.75;20.50;;;;;11.65;48.90;101722.19;5034902;28;46211;-56
2022/05/01 05:21:20;;;;;;;;;21.50;15.25;;;;;11.71;48.50;101720.53;5035673;28;45456;-57
2022/05/01 05:23:46;;;;;;;;;21.00;18.25;;;;;11.69;49.01;101722.66;5038656;28;45347;-55
2022/05/01 05:26:11;;;;;;;;;21.75;20.75;;;;;11.78;48.82;101718.72;5070999;28;45485;-49
2022/05/01 05:28:37;;;;;;;;;23.75;17.75;;;;;11.76;48.61;101716.19;5038052;28;45439;-52
2022/05/01 05:31:03;;;;;;;;;22.75;19.00;;;;;11.59;48.85;101692.72;5038473;28;45456;-52
2022/05/01 05:33:29;;;;;;;;;23.60;19.60;;;;;11.73;48.41;101727.56;5038442;28;45304;-54
2022/05/01 05:35:54;;;;;;;;;23.00;22.50;;;;;11.71;49.12;101737.91;5037558;28;45377;-54
2022/05/01 05:38:20;;;;;;;;;22.50;20.75;;;;;11.63;48.79;101730.63;5070846;28;45256;-54
2022/05/01 05:40:45;;;;;;;;;18.50;16.00;;;;;11.65;48.80;101733.19;5037994;28;45419;-54
2022/05/01 05:43:11;;;;;;;;;21.00;17.25;;;;;11.65;48.76;101728.53;5070778;28;45408;-52
2022/05/01 05:45:37;;;;;;;;;24.50;17.75;;;;;11.69;49.04;101720.72;5038272;28;45304;-49
2022/05/01 05:48:03;;;;;;;;;22.00;20.75;;;;;11.75;48.83;101733.69;5038198;28;45366;-51
2022/05/01 05:50:29;;;;;;;;;28.80;22.40;;;;;11.80;49.20;101724.88;5038003;28;45373;-51
2022/05/01 05:52:54;;;;;;;;;23.00;20.50;;;;;11.70;49.23;101727.09;5037939;28;45369;-52
2022/05/01 05:55:20;;;;;;;;;25.25;21.50;;;;;11.62;49.34;101722.56;5038563;28;45622;-52
2022/05/01 05:57:45;;;;;;;;;24.00;21.50;;;;;11.39;49.40;101698.84;5037799;28;45542;-51
2022/05/01 06:00:11;;;;;;;;;21.50;20.00;;;;;11.46;49.54;101698.91;5037865;28;45414;-52
2022/05/01 06:02:37;;;;;;;;;23.40;20.80;;;;;11.46;49.30;101685.16;5070774;28;45523;-55
2022/05/01 06:05:03;;;;;;;;;22.75;21.75;;;;;11.59;49.57;101720.22;5038377;28;45370;-56
2022/05/01 06:07:28;;;;;;;;;23.60;21.40;;;;;11.38;49.60;101687.00;5036673;28;45674;-57
2022/05/01 06:09:54;;;;;;;;;20.25;20.25;;;;;11.55;49.69;101718.88;5038079;28;45386;-54
2022/05/01 06:12:19;;;;;;;;;24.00;19.25;;;;;11.57;49.43;101723.16;5038300;28;45437;-48
2022/05/01 06:14:45;;;;;;;;;25.75;25.00;;;;;11.70;49.72;101725.22;5038156;28;45313;-53
2022/05/01 06:17:12;;;;;;;;;23.00;23.00;;;;;11.77;48.97;101719.75;5037944;28;47349;-55
2022/05/01 06:19:39;;;;;;;;;25.20;22.00;;;;;11.90;49.09;101728.16;5038140;28;45285;-53
2022/05/01 06:22:04;;;;;;;;;24.00;24.00;;;;;11.98;48.67;101729.91;5037677;28;45446;-55
2022/05/01 06:24:30;;;;;;;;;25.00;22.25;;;;;12.06;48.93;101731.69;5036865;28;45389;-57
2022/05/01 06:26:55;;;;;;;;;27.50;25.00;;;;;11.98;48.22;101713.41;5037456;28;46061;-54
2022/05/01 06:29:21;;;;;;;;;25.25;25.00;;;;;12.02;48.44;101730.38;5038003;28;45377;-53
2022/05/01 06:31:46;;;;;;;;;28.00;22.00;;;;;12.12;48.51;101735.56;5037678;28;45420;-51
2022/05/01 06:34:12;;;;;;;;;24.25;22.25;;;;;12.09;48.71;101735.94;5036560;28;45627;-55
2022/05/01 06:36:37;;;;;;;;;24.75;21.50;;;;;12.07;48.88;101730.66;5037755;28;46493;-51
2022/05/01 06:39:03;;;;;;;;;24.25;23.50;;;;;11.92;49.66;101736.22;5036195;28;45740;-50
2022/05/01 06:41:28;;;;;;;;;29.50;25.00;;;;;11.99;49.37;101742.63;5037929;28;45465;-56
2022/05/01 06:43:54;;;;;;;;;28.00;24.00;;;;;12.04;49.50;101740.16;5038157;28;45604;-48
2022/05/01 06:46:19;;;;;;;;;27.00;23.50;;;;;12.11;49.05;101747.63;5037357;28;45346;-56
2022/05/01 06:48:45;;;;;;;;;35.00;31.50;;;;;12.03;48.73;101723.81;5010368;28;45577;-57
2022/05/01 06:51:10;;;;;;;;;36.75;26.25;;;;;12.26;48.63;101750.28;5057514;28;45869;-57
2022/05/01 06:53:36;;;;;;;;;24.50;23.75;;;;;12.23;48.77;101751.56;5056789;28;45407;-51
2022/05/01 06:56:01;;;;;;;;;27.50;25.00;;;;;12.32;48.38;101749.50;5057201;28;46165;-48
2022/05/01 06:58:27;;;;;;;;;34.25;30.00;;;;;12.28;48.73;101728.94;5056397;28;45370;-52
2022/05/01 07:00:54;;;;;;;;;27.50;22.00;;;;;12.48;48.23;101748.34;5057247;28;45511;-53
2022/05/01 07:03:20;;;;;;;;;29.40;27.00;;;;;12.49;48.48;101746.47;5057527;28;45332;-55
2022/05/01 07:05:46;;;;;;;;;29.50;28.25;;;;;12.57;48.29;101744.41;5055976;28;45905;-53
2022/05/01 07:08:11;;;;;;;;;24.75;23.25;;;;;12.60;48.18;101745.91;5056990;28;45742;-53
2022/05/01 07:10:37;;;;;;;;;27.25;25.25;;;;;12.64;48.27;101741.69;5039483;28;45378;-52
2022/05/01 07:13:02;;;;;;;;;36.25;30.75;;;;;12.63;47.63;101744.66;5057210;28;45547;-54
2022/05/01 07:15:28;;;;;;;;;30.00;26.75;;;;;12.56;48.08;101739.97;5057060;28;45581;-52
2022/05/01 07:17:53;;;;;;;;;27.00;24.00;;;;;12.43;47.79;101710.41;5049489;28;45297;-52
2022/05/01 07:20:19;;;;;;;;;19.00;16.25;;;;;12.56;48.49;101737.22;5036844;28;45418;-54
2022/05/01 07:22:45;;;;;;;;;29.40;25.40;;;;;12.64;48.00;101736.19;5037244;28;45286;-52
2022/05/01 07:25:10;;;;;;;;;34.00;29.25;;;;;12.80;47.75;101734.19;5068881;28;46801;-50
2022/05/01 07:27:36;;;;;;;;;31.25;27.25;;;;;12.90;47.56;101728.31;5036836;28;45400;-52
2022/05/01 07:30:02;;;;;;;;;28.25;27.25;;;;;12.95;47.33;101731.28;5037043;28;45366;-57
2022/05/01 07:32:27;;;;;;;;;33.50;29.75;;;;;13.03;47.12;101736.63;5036812;28;45405;-57
2022/05/01 07:34:53;;;;;;;;;24.50;24.25;;;;;13.13;46.95;101734.34;5036611;28;46230;-54
2022/05/01 07:37:20;;;;;;;;;25.25;21.50;;;;;13.22;46.53;101728.66;5036352;28;46093;-50
2022/05/01 07:39:46;;;;;;;;;25.80;22.80;;;;;13.28;46.45;101745.22;5037017;28;45386;-55
2022/05/01 07:42:11;;;;;;;;;33.25;27.75;;;;;13.20;46.55;101734.38;5035439;28;45381;-52
2022/05/01 07:44:37;;;;;;;;;27.25;24.00;;;;;13.31;46.37;101740.34;5035393;28;45411;-56
2022/05/01 07:47:02;;;;;;;;;28.00;22.75;;;;;13.24;45.77;101732.06;5036233;28;45392;-58
2022/05/01 07:49:28;;;;;;;;;26.25;25.00;;;;;13.15;46.54;101736.91;5036367;28;45460;-53
2022/05/01 07:51:53;;;;;;;;;28.00;24.75;;;;;13.28;45.93;101728.69;5012482;28;46048;-51
2022/05/01 07:54:19;;;;;;;;;30.25;26.75;;;;;13.42;45.89;101726.84;5036309;28;45627;-50
2022/05/01 07:56:45;;;;;;;;;24.60;20.40;;;;;13.47;45.88;101722.63;5067187;28;45267;-51
2022/05/01 07:59:11;;;;;;;;;27.50;22.25;;;;;13.42;45.73;101715.81;5036106;28;45751;-54
2022/05/01 08:01:38;;;;;;;;;26.40;21.80;;;;;13.25;45.35;101709.78;5035923;28;45448;-53
2022/05/01 08:06:49;;;;;;;;;27.00;24.00;;;;;12.99;45.37;101663.69;5035353;28;45305;-48
2022/05/01 08:09:14;;;;;;;;;25.00;23.50;;;;;13.43;44.95;101711.13;5036322;28;45425;-53
2022/05/01 08:11:40;;;;;;;;;27.75;24.00;;;;;13.45;45.17;101710.94;5034394;28;45454;-54
2022/05/01 08:14:05;;;;;;;;;25.25;21.50;;;;;13.50;45.08;101708.44;5034415;28;46446;-56
2022/05/01 08:16:31;;;;;;;;;24.25;22.75;;;;;13.46;45.00;101696.09;5035651;28;45457;-48
2022/05/01 08:21:40;;;;;;;;;27.00;23.20;;;;;13.67;44.86;101706.97;5035469;28;45393;-51
2022/05/01 08:24:06;;;;;;;;;27.00;25.00;;;;;13.71;44.75;101701.88;5034342;28;46079;-55
2022/05/01 08:26:33;;;;;;;;;22.75;20.00;;;;;13.78;44.56;101701.91;5034303;28;45402;-54
2022/05/01 08:28:58;;;;;;;;;28.00;22.20;;;;;13.86;44.60;101706.38;5067601;27;45459;-52
2022/05/01 08:31:24;;;;;;;;;23.00;21.00;;;;;13.87;44.16;101705.31;5036093;28;45393;-54
2022/05/01 08:33:49;;;;;;;;;19.00;17.25;;;;;13.93;43.48;101699.78;5034996;28;45520;-55
2022/05/01 08:36:15;;;;;;;;;30.00;27.75;;;;;13.64;42.67;101659.66;5068094;28;45306;-56
2022/05/01 08:38:42;;;;;;;;;28.50;25.75;;;;;13.80;42.91;101697.03;5034272;28;45414;-56
2022/05/01 08:41:08;;;;;;;;;28.80;23.80;;;;;13.87;43.30;101686.00;5035822;28;45595;-52
2022/05/01 08:43:34;;;;;;;;;21.00;19.00;;;;;14.05;43.02;101690.88;5067120;27;45361;-52
2022/05/01 08:46:19;;;;;;;;;31.00;29.20;;;;;14.14;42.89;101695.13;5035014;28;45501;-52
2022/05/01 08:48:59;;;;;;;;;25.20;23.00;;;;;14.13;42.21;101665.00;5035198;28;45383;-52
2022/05/01 08:51:25;;;;;;;;;28.60;21.20;;;;;14.31;42.55;101691.94;5008448;27;45798;-55
2022/05/01 08:53:50;;;;;;;;;23.75;22.50;;;;;14.28;42.45;101689.59;5003349;28;46574;-53
2022/05/01 08:56:17;;;;;;;;;26.00;24.50;;;;;14.33;42.50;101679.63;5008083;28;45427;-50
2022/05/01 08:58:42;;;;;;;;;20.60;20.60;;;;;14.47;42.79;101690.66;5030095;28;45470;-54
2022/05/01 09:01:08;;;;;;;;;25.00;22.75;;;;;14.54;42.20;101677.66;5014335;28;45495;-52
2022/05/01 09:03:34;;;;;;;;;25.00;22.25;;;;;14.69;41.60;101684.84;5034481;28;45518;-52
2022/05/01 09:05:59;;;;;;;;;26.00;23.00;;;;;14.53;41.60;101662.16;5034603;28;45492;-53
2022/05/01 09:08:26;;;;;;;;;25.50;24.25;;;;;14.75;41.98;101679.34;5033258;28;45501;-50
2022/05/01 09:10:52;;;;;;;;;27.60;22.20;;;;;14.73;41.28;101655.75;5035018;28;45397;-53
2022/05/01 09:13:24;;;;;;;;;28.00;23.75;;;;;14.93;41.19;101676.97;5033865;28;45450;-53
2022/05/01 09:15:50;;;;;;;;;25.40;22.60;;;;;14.80;41.25;101640.00;5066598;28;45438;-52
2022/05/01 09:18:15;;;;;;;;;20.75;19.50;;;;;15.08;41.42;101674.75;5034689;28;45388;-51
2022/05/01 09:21:00;;;;;;;;;23.50;22.25;;;;;15.12;41.13;101672.41;5035280;28;45417;-51
2022/05/01 09:24:05;;;;;;;;;23.20;22.80;;;;;15.08;40.67;101668.38;5034143;28;46297;-50
2022/05/01 09:26:36;;;;;;;;;23.20;22.00;;;;;15.12;40.65;101670.50;5022174;28;45579;-52
2022/05/01 09:29:02;;;;;;;;;22.80;19.80;;;;;15.21;40.85;101673.84;5034721;28;45278;-53
2022/05/01 09:31:44;;;;;;;;;22.50;19.25;;;;;15.24;39.84;101667.03;5034276;28;45869;-56
2022/05/01 09:34:28;;;;;;;;;22.60;22.40;;;;;15.22;40.07;101669.16;5034437;28;45716;-55
2022/05/01 09:36:54;;;;;;;;;24.20;23.60;;;;;15.20;39.78;101658.31;5035016;28;45442;-46
2022/05/01 09:39:22;;;;;;;;;27.00;21.25;;;;;15.37;40.20;101660.59;5033268;28;45389;-49
2022/05/01 09:41:51;;;;;;;;;27.80;22.60;;;;;15.47;39.84;101666.47;5033904;28;45689;-47
2022/05/01 09:44:18;;;;;;;;;26.60;24.80;;;;;15.58;39.36;101665.75;5033116;28;46532;-54
2022/05/01 09:46:47;;;;;;;;;23.20;20.60;;;;;15.55;39.27;101659.81;5034247;28;45592;-55
2022/05/01 09:49:14;;;;;;;;;23.80;22.00;;;;;15.61;39.48;101663.59;5034142;28;45429;-53
2022/05/01 09:51:47;;;;;;;;;26.40;25.00;;;;;15.37;38.92;101628.22;5051051;28;45464;-51
2022/05/01 09:54:23;;;;;;;;;25.20;21.20;;;;;15.47;38.97;101626.91;5054526;28;45734;-51
2022/05/01 09:56:50;;;;;;;;;25.80;23.00;;;;;15.79;38.50;101649.03;5087455;27;45664;-52
2022/05/01 09:59:16;;;;;;;;;25.80;22.20;;;;;15.55;38.75;101583.22;5054251;28;45570;-51
2022/05/01 10:02:02;;;;;;;;;23.20;18.60;;;;;16.04;38.46;101650.94;5053485;28;45567;-49
2022/05/01 10:04:28;;;;;;;;;24.80;20.80;;;;;16.15;37.90;101646.59;5052211;27;47420;-51
2022/05/01 10:06:55;;;;;;;;;19.00;17.60;;;;;16.25;37.94;101642.25;5033190;28;45449;-53
2022/05/01 10:09:23;;;;;;;;;27.00;23.40;;;;;16.37;37.99;101635.94;5036132;28;45340;-54
2022/05/01 10:11:49;;;;;;;;;18.60;18.60;;;;;16.30;37.18;101633.25;5020014;28;45380;-55
2022/05/01 10:14:18;;;;;;;;;22.20;21.40;;;;;16.44;37.48;101633.94;5018359;28;46178;-54
2022/05/01 10:16:43;;;;;;;;;24.80;22.40;;;;;16.51;36.11;101617.25;5067847;27;45488;-50
2022/05/01 10:19:09;;;;;;;;;18.00;18.00;;;;;16.61;36.81;101631.44;5036199;28;45267;-51
2022/05/01 10:21:35;;;;;;;;;22.00;19.25;;;;;16.46;36.53;101594.94;5070331;28;45305;-53
2022/05/01 10:24:01;;;;;;;;;23.50;21.75;;;;;16.67;36.62;101630.47;5036178;28;46693;-51
2022/05/01 10:26:30;;;;;;;;;21.25;18.75;;;;;16.56;36.61;101620.19;5034823;28;45401;-54
2022/05/01 10:29:05;;;;;;;;;19.60;18.60;;;;;16.56;36.20;101617.41;5020661;28;45864;-50
2022/05/01 10:35:20;;;;;;;;;20.20;19.60;;;;;16.32;34.82;101572.09;5034589;28;45825;-52
2022/05/01 10:38:20;;;;;;;;;23.40;20.60;;;;;16.51;35.76;101606.16;5006969;27;45902;-50
2022/05/01 10:40:59;;;;;;;;;16.40;16.00;;;;;16.73;36.14;101603.78;4987705;28;45511;-54
2022/05/01 10:43:33;;;;;;;;;17.00;17.00;;;;;16.73;35.67;101564.13;5023601;28;45795;-59
2022/05/01 10:46:24;;;;;;;;;22.40;21.20;;;;;17.02;34.84;101584.66;5029195;28;46775;-53
2022/05/01 10:48:50;;;;;;;;;18.40;18.40;;;;;17.03;35.00;101578.03;5030844;28;45956;-55
2022/05/01 10:51:27;;;;;;;;;20.50;18.00;;;;;17.10;34.57;101564.06;5031396;28;45418;-54
2022/05/01 10:54:13;;;;;;;;;22.40;19.60;;;;;17.25;34.26;101590.53;5031431;28;45845;-58
2022/05/01 10:56:39;;;;;;;;;18.00;16.40;;;;;17.17;34.06;101567.59;5028893;28;46049;-51
2022/05/01 10:59:29;;;;;;;;;16.25;16.25;;;;;17.32;34.41;101580.16;5032328;28;46012;-54
2022/05/01 11:01:55;;;;;;;;;20.00;18.80;;;;;17.41;34.25;101567.66;5032947;28;45438;-56
2022/05/01 11:04:21;;;;;;;;;20.00;18.80;;;;;17.46;34.26;101573.31;5033032;28;45694;-54
2022/05/01 11:06:50;;;;;;;;;18.40;17.20;;;;;17.63;34.25;101567.09;5030720;28;45778;-56
2022/05/01 11:09:19;;;;;;;;;11.60;9.40;;;;;17.71;34.15;101560.31;5013839;28;45407;-58
2022/05/01 11:11:45;;;;;;;;;17.60;17.00;;;;;17.71;33.59;101561.16;5048137;28;45393;-48
2022/05/01 11:14:13;;;;;;;;;19.60;15.80;;;;;17.82;33.87;101567.81;5032892;28;45571;-49
2022/05/01 11:16:52;;;;;;;;;16.80;13.00;;;;;17.83;32.95;101530.63;5047519;28;47740;-50
2022/05/01 11:19:17;;;;;;;;;13.00;12.00;;;;;18.06;32.53;101567.00;5031942;28;45705;-56
2022/05/01 11:21:47;;;;;;;;;20.25;14.50;;;;;18.05;32.92;101560.63;5029328;28;45817;-56
2022/05/01 11:24:15;;;;;;;;;16.40;15.00;;;;;18.15;33.80;101552.50;5031768;28;45444;-53
2022/05/01 11:27:07;;;;;;;;;22.60;19.80;;;;;17.97;32.63;101534.00;5030189;28;46829;-51
2022/05/01 11:29:32;;;;;;;;;15.80;15.40;;;;;18.09;33.94;101547.09;5053883;28;45461;-59
2022/05/01 11:31:58;;;;;;;;;18.25;17.00;;;;;18.04;33.50;101544.16;5011070;28;45766;-58
2022/05/01 11:34:23;;;;;;;;;14.00;14.00;;;;;17.80;32.02;101511.69;5041798;28;45372;-56
2022/05/01 11:36:54;;;;;;;;;15.25;14.25;;;;;17.99;32.65;101534.59;5018714;27;46589;-55